LGKO/KGS METAR and TAF weather

Enter ICAO airport designator
Station Type Date Time Source
LGKO METAR 2022/01/29 09:20 UTC NOAA

LGKO 290920Z 12007KT 9999 FEW018 11/03 Q1020


Station Type Date Time Source
LGKO Decoded METAR 2022/01/29 09:20 UTC NOAA

Kos Airport , Greece (LGKO) 36-47N 027-04E
Jan 29, 2022 - 04:20 AM EST / 2022.01.29 0920 UTC
Wind: from the ESE (120 degrees) at 8 MPH (7 KT):0
Visibility: greater than 7 mile(s):0
Sky conditions: mostly clear
Temperature: 51 F (11 C)
Dew Point: 37 F (3 C)
Relative Humidity: 57%
Pressure (altimeter): 30.12 in. Hg (1020 hPa)
ob: LGKO 290920Z 12007KT 9999 FEW018 11/03 Q1020
cycle: 9

Station Type Date Time Source
LGKO TAF 2022/01/29 06:12 UTC NOAA

TAF LGKO 290500Z 2906/3006 16012KT 9999 BKN025 BKN050
TEMPO 2912/2918 14015G25KT
TEMPO 2918/3006 14022G32KT PROB40
TEMPO 2910/3006 5000 RA FEW012 FEW018TCU BKN020 PROB40
TEMPO 2912/3006 4000 TSRA SCT012 FEW018CB BKN020 BKN050

Example: see airport list